Follansbee, West Virginia
Current Conditions -  °F | °C
As of 4:14 AM on Friday 24 Oct 2014 (Local Time) from KHLG Reporting Station
Moderate Fog Moderate Fog  
Wind Chill: 33°   Ceiling: 100
Heat Index: 37°   Visibility: 0.25mi
Dew Point: 36°   Wind: 5mph
Humidity: 96%   Direction: 240°WSW
Pressure: 30.08"   Gusts: NA
Location:  40.33°N, 80.6°W
Report Text: KHLG 240814Z AUTO 24004KT 1/4SM R03/1200V1600FT FG VV001 03/02 A3008 RMK AO2 T00280022
Loading
Personal Weather Stations






























Interactive Weather Map
Tropical Storm Tracking
New forecast layout! Learn more

10-Day Weather Forecast

Advertisements
Track Severe Weather on mobile